sensor_id;sensor_type;location;lat;lon;timestamp;temperature;humidity
54124;DHT22;55741;53.252;5.788;2023-06-24T00:00:58;16.80;99.90
54124;DHT22;55741;53.252;5.788;2023-06-24T00:03:24;16.70;99.90
54124;DHT22;55741;53.252;5.788;2023-06-24T00:05:50;16.60;99.90
54124;DHT22;55741;53.252;5.788;2023-06-24T00:08:16;16.50;99.90
54124;DHT22;55741;53.252;5.788;2023-06-24T00:10:49;16.50;99.90
54124;DHT22;55741;53.252;5.788;2023-06-24T00:13:16;16.40;99.90
54124;DHT22;55741;53.252;5.788;2023-06-24T00:15:42;16.30;99.90
54124;DHT22;55741;53.252;5.788;2023-06-24T00:18:09;16.30;99.90
54124;DHT22;55741;53.252;5.788;2023-06-24T00:20:35;16.20;99.90
54124;DHT22;55741;53.252;5.788;2023-06-24T00:23:01;16.10;99.90
54124;DHT22;55741;53.252;5.788;2023-06-24T00:25:28;16.10;99.90
54124;DHT22;55741;53.252;5.788;2023-06-24T00:27:54;16.00;99.90
54124;DHT22;55741;53.252;5.788;2023-06-24T00:30:20;15.90;99.90
54124;DHT22;55741;53.252;5.788;2023-06-24T00:32:46;15.90;99.90
54124;DHT22;55741;53.252;5.788;2023-06-24T00:35:12;15.90;99.90
54124;DHT22;55741;53.252;5.788;2023-06-24T00:37:38;15.90;99.90
54124;DHT22;55741;53.252;5.788;2023-06-24T00:40:05;15.90;99.90
54124;DHT22;55741;53.252;5.788;2023-06-24T00:42:31;15.90;99.90
54124;DHT22;55741;53.252;5.788;2023-06-24T00:44:59;15.90;99.90
54124;DHT22;55741;53.252;5.788;2023-06-24T00:47:25;15.90;99.90
54124;DHT22;55741;53.252;5.788;2023-06-24T00:49:51;15.90;99.90
54124;DHT22;55741;53.252;5.788;2023-06-24T00:52:17;15.90;99.90
54124;DHT22;55741;53.252;5.788;2023-06-24T00:54:44;15.90;99.90
54124;DHT22;55741;53.252;5.788;2023-06-24T00:57:10;15.80;99.90
54124;DHT22;55741;53.252;5.788;2023-06-24T00:59:37;15.80;99.90
54124;DHT22;55741;53.252;5.788;2023-06-24T01:02:04;15.80;99.90
54124;DHT22;55741;53.252;5.788;2023-06-24T01:04:33;15.80;99.90
54124;DHT22;55741;53.252;5.788;2023-06-24T01:07:00;15.70;99.90
54124;DHT22;55741;53.252;5.788;2023-06-24T01:09:27;15.60;99.90
54124;DHT22;55741;53.252;5.788;2023-06-24T01:11:53;15.60;99.90
54124;DHT22;55741;53.252;5.788;2023-06-24T01:14:19;15.50;99.90
54124;DHT22;55741;53.252;5.788;2023-06-24T01:22:41;15.60;99.90
54124;DHT22;55741;53.252;5.788;2023-06-24T01:33:08;15.70;99.90
54124;DHT22;55741;53.252;5.788;2023-06-24T01:35:35;15.70;99.90
54124;DHT22;55741;53.252;5.788;2023-06-24T01:38:08;15.70;99.90
54124;DHT22;55741;53.252;5.788;2023-06-24T01:40:41;15.70;99.90
54124;DHT22;55741;53.252;5.788;2023-06-24T01:43:09;15.70;99.90
54124;DHT22;55741;53.252;5.788;2023-06-24T01:45:41;15.70;99.90
54124;DHT22;55741;53.252;5.788;2023-06-24T01:48:09;15.80;99.90
54124;DHT22;55741;53.252;5.788;2023-06-24T01:50:41;15.80;99.90
54124;DHT22;55741;53.252;5.788;2023-06-24T01:53:09;15.80;99.90
54124;DHT22;55741;53.252;5.788;2023-06-24T01:55:37;15.70;99.90
54124;DHT22;55741;53.252;5.788;2023-06-24T01:58:05;15.70;99.90
54124;DHT22;55741;53.252;5.788;2023-06-24T02:00:33;15.70;99.90
54124;DHT22;55741;53.252;5.788;2023-06-24T02:03:01;15.70;99.90
54124;DHT22;55741;53.252;5.788;2023-06-24T02:05:28;15.70;99.90
54124;DHT22;55741;53.252;5.788;2023-06-24T02:07:56;15.70;99.90
54124;DHT22;55741;53.252;5.788;2023-06-24T02:10:23;15.70;99.90
54124;DHT22;55741;53.252;5.788;2023-06-24T02:12:51;15.70;99.90
54124;DHT22;55741;53.252;5.788;2023-06-24T02:15:19;15.60;99.90
54124;DHT22;55741;53.252;5.788;2023-06-24T02:17:48;15.60;99.90
54124;DHT22;55741;53.252;5.788;2023-06-24T02:20:15;15.60;99.90
54124;DHT22;55741;53.252;5.788;2023-06-24T02:22:43;15.60;99.90
54124;DHT22;55741;53.252;5.788;2023-06-24T02:25:09;15.60;99.90
54124;DHT22;55741;53.252;5.788;2023-06-24T02:27:36;15.60;99.90
54124;DHT22;55741;53.252;5.788;2023-06-24T02:30:03;15.60;99.90
54124;DHT22;55741;53.252;5.788;2023-06-24T02:32:30;15.60;99.90
54124;DHT22;55741;53.252;5.788;2023-06-24T02:34:57;15.60;99.90
54124;DHT22;55741;53.252;5.788;2023-06-24T02:37:24;15.60;99.90
54124;DHT22;55741;53.252;5.788;2023-06-24T02:39:50;15.50;99.90
54124;DHT22;55741;53.252;5.788;2023-06-24T02:42:16;15.50;99.90
54124;DHT22;55741;53.252;5.788;2023-06-24T02:44:42;15.50;99.90
54124;DHT22;55741;53.252;5.788;2023-06-24T02:47:12;15.40;99.90
54124;DHT22;55741;53.252;5.788;2023-06-24T02:49:40;15.50;99.90
54124;DHT22;55741;53.252;5.788;2023-06-24T02:52:08;15.40;99.90
54124;DHT22;55741;53.252;5.788;2023-06-24T02:54:34;15.40;99.90
54124;DHT22;55741;53.252;5.788;2023-06-24T02:57:00;15.40;99.90
54124;DHT22;55741;53.252;5.788;2023-06-24T02:59:26;15.40;99.90
54124;DHT22;55741;53.252;5.788;2023-06-24T03:01:53;15.40;99.90
54124;DHT22;55741;53.252;5.788;2023-06-24T03:04:20;15.30;99.90
54124;DHT22;55741;53.252;5.788;2023-06-24T03:06:46;15.30;99.90
54124;DHT22;55741;53.252;5.788;2023-06-24T03:09:14;15.40;99.90
54124;DHT22;55741;53.252;5.788;2023-06-24T03:11:42;15.40;99.90
54124;DHT22;55741;53.252;5.788;2023-06-24T03:14:08;15.30;99.90
54124;DHT22;55741;53.252;5.788;2023-06-24T03:16:34;15.40;99.90
54124;DHT22;55741;53.252;5.788;2023-06-24T03:19:00;15.40;99.90
54124;DHT22;55741;53.252;5.788;2023-06-24T03:21:26;15.30;99.90
54124;DHT22;55741;53.252;5.788;2023-06-24T03:23:54;15.40;99.90
54124;DHT22;55741;53.252;5.788;2023-06-24T03:26:20;15.30;99.90
54124;DHT22;55741;53.252;5.788;2023-06-24T03:28:46;15.40;99.90
54124;DHT22;55741;53.252;5.788;2023-06-24T03:31:13;15.40;99.90
54124;DHT22;55741;53.252;5.788;2023-06-24T03:33:41;15.40;99.90
54124;DHT22;55741;53.252;5.788;2023-06-24T03:36:10;15.40;99.90
54124;DHT22;55741;53.252;5.788;2023-06-24T03:38:36;15.40;99.90
54124;DHT22;55741;53.252;5.788;2023-06-24T03:41:02;15.30;99.90
54124;DHT22;55741;53.252;5.788;2023-06-24T03:43:28;15.30;99.90
54124;DHT22;55741;53.252;5.788;2023-06-24T03:45:54;15.30;99.90
54124;DHT22;55741;53.252;5.788;2023-06-24T03:48:22;15.30;99.90
54124;DHT22;55741;53.252;5.788;2023-06-24T03:50:48;15.40;99.90
54124;DHT22;55741;53.252;5.788;2023-06-24T03:53:13;15.30;99.90
54124;DHT22;55741;53.252;5.788;2023-06-24T03:55:39;15.40;99.90
54124;DHT22;55741;53.252;5.788;2023-06-24T03:58:05;15.40;99.90
54124;DHT22;55741;53.252;5.788;2023-06-24T04:00:31;15.40;99.90
54124;DHT22;55741;53.252;5.788;2023-06-24T04:02:57;15.40;99.90
54124;DHT22;55741;53.252;5.788;2023-06-24T04:05:26;15.40;99.90
54124;DHT22;55741;53.252;5.788;2023-06-24T04:07:52;15.40;99.90
54124;DHT22;55741;53.252;5.788;2023-06-24T04:10:19;15.40;99.90
54124;DHT22;55741;53.252;5.788;2023-06-24T04:12:48;15.40;99.90
54124;DHT22;55741;53.252;5.788;2023-06-24T04:15:13;15.50;99.90
54124;DHT22;55741;53.252;5.788;2023-06-24T04:17:39;15.60;99.90
54124;DHT22;55741;53.252;5.788;2023-06-24T04:20:06;15.60;99.90
54124;DHT22;55741;53.252;5.788;2023-06-24T04:22:40;15.70;99.90
54124;DHT22;55741;53.252;5.788;2023-06-24T04:25:07;15.80;99.90
54124;DHT22;55741;53.252;5.788;2023-06-24T04:27:33;15.80;99.90
54124;DHT22;55741;53.252;5.788;2023-06-24T04:30:00;15.90;99.90
54124;DHT22;55741;53.252;5.788;2023-06-24T04:32:26;16.00;99.90
54124;DHT22;55741;53.252;5.788;2023-06-24T04:34:52;16.10;99.90
54124;DHT22;55741;53.252;5.788;2023-06-24T04:37:18;16.10;99.90
54124;DHT22;55741;53.252;5.788;2023-06-24T04:39:44;16.10;99.90
54124;DHT22;55741;53.252;5.788;2023-06-24T04:42:11;16.20;99.90
54124;DHT22;55741;53.252;5.788;2023-06-24T04:44:37;16.30;99.90
54124;DHT22;55741;53.252;5.788;2023-06-24T04:47:03;16.30;99.90
54124;DHT22;55741;53.252;5.788;2023-06-24T04:49:31;16.40;99.90
54124;DHT22;55741;53.252;5.788;2023-06-24T04:51:59;16.40;99.90
54124;DHT22;55741;53.252;5.788;2023-06-24T04:54:25;16.50;99.90
54124;DHT22;55741;53.252;5.788;2023-06-24T04:56:50;16.60;99.90
54124;DHT22;55741;53.252;5.788;2023-06-24T04:59:18;16.60;99.90
54124;DHT22;55741;53.252;5.788;2023-06-24T05:01:43;16.70;99.90
54124;DHT22;55741;53.252;5.788;2023-06-24T05:04:09;16.80;99.90
54124;DHT22;55741;53.252;5.788;2023-06-24T05:06:35;16.80;99.90
54124;DHT22;55741;53.252;5.788;2023-06-24T05:09:01;16.90;99.90
54124;DHT22;55741;53.252;5.788;2023-06-24T05:11:27;17.00;99.90
54124;DHT22;55741;53.252;5.788;2023-06-24T05:13:52;17.10;99.90
54124;DHT22;55741;53.252;5.788;2023-06-24T05:16:18;17.20;99.90
54124;DHT22;55741;53.252;5.788;2023-06-24T05:18:44;17.30;99.90
54124;DHT22;55741;53.252;5.788;2023-06-24T05:21:11;17.50;99.90
54124;DHT22;55741;53.252;5.788;2023-06-24T05:23:37;17.60;99.90
54124;DHT22;55741;53.252;5.788;2023-06-24T05:26:03;17.80;99.90
54124;DHT22;55741;53.252;5.788;2023-06-24T05:28:28;17.90;99.90
54124;DHT22;55741;53.252;5.788;2023-06-24T05:30:54;18.10;99.90
54124;DHT22;55741;53.252;5.788;2023-06-24T05:33:20;18.20;99.90
54124;DHT22;55741;53.252;5.788;2023-06-24T05:35:46;18.30;99.90
54124;DHT22;55741;53.252;5.788;2023-06-24T05:38:12;18.40;99.90
54124;DHT22;55741;53.252;5.788;2023-06-24T05:40:37;18.50;99.90
54124;DHT22;55741;53.252;5.788;2023-06-24T05:43:03;18.60;99.90
54124;DHT22;55741;53.252;5.788;2023-06-24T05:45:29;18.70;99.90
54124;DHT22;55741;53.252;5.788;2023-06-24T05:47:55;18.80;99.90
54124;DHT22;55741;53.252;5.788;2023-06-24T05:50:22;18.90;99.90
54124;DHT22;55741;53.252;5.788;2023-06-24T05:52:48;19.00;99.90
54124;DHT22;55741;53.252;5.788;2023-06-24T05:55:14;19.00;99.90
54124;DHT22;55741;53.252;5.788;2023-06-24T05:57:40;19.10;99.90
54124;DHT22;55741;53.252;5.788;2023-06-24T06:00:06;19.10;99.90
54124;DHT22;55741;53.252;5.788;2023-06-24T06:02:32;19.20;99.90
54124;DHT22;55741;53.252;5.788;2023-06-24T06:04:58;19.30;99.90
54124;DHT22;55741;53.252;5.788;2023-06-24T06:07:24;19.40;99.90
54124;DHT22;55741;53.252;5.788;2023-06-24T06:09:50;19.40;99.90
54124;DHT22;55741;53.252;5.788;2023-06-24T06:12:15;19.50;99.90
54124;DHT22;55741;53.252;5.788;2023-06-24T06:14:41;19.50;99.90
54124;DHT22;55741;53.252;5.788;2023-06-24T06:17:07;19.60;99.90
54124;DHT22;55741;53.252;5.788;2023-06-24T06:19:33;19.70;99.90
54124;DHT22;55741;53.252;5.788;2023-06-24T06:21:59;19.70;99.90
54124;DHT22;55741;53.252;5.788;2023-06-24T06:24:24;19.80;99.90
54124;DHT22;55741;53.252;5.788;2023-06-24T06:26:50;19.90;99.90
54124;DHT22;55741;53.252;5.788;2023-06-24T06:29:16;20.00;99.90
54124;DHT22;55741;53.252;5.788;2023-06-24T06:31:42;20.00;99.90
54124;DHT22;55741;53.252;5.788;2023-06-24T06:34:08;20.10;99.90
54124;DHT22;55741;53.252;5.788;2023-06-24T06:36:34;20.20;99.90
54124;DHT22;55741;53.252;5.788;2023-06-24T06:39:00;20.20;99.90
54124;DHT22;55741;53.252;5.788;2023-06-24T06:41:25;20.30;99.90
54124;DHT22;55741;53.252;5.788;2023-06-24T06:43:52;20.30;99.90
54124;DHT22;55741;53.252;5.788;2023-06-24T06:46:17;20.40;99.90
54124;DHT22;55741;53.252;5.788;2023-06-24T06:48:43;20.40;99.90
54124;DHT22;55741;53.252;5.788;2023-06-24T06:51:11;20.50;99.90
54124;DHT22;55741;53.252;5.788;2023-06-24T06:53:37;20.50;99.90
54124;DHT22;55741;53.252;5.788;2023-06-24T06:56:03;20.50;99.90
54124;DHT22;55741;53.252;5.788;2023-06-24T06:58:29;20.60;99.90
54124;DHT22;55741;53.252;5.788;2023-06-24T07:00:55;20.50;99.90
54124;DHT22;55741;53.252;5.788;2023-06-24T07:03:21;20.60;99.90
54124;DHT22;55741;53.252;5.788;2023-06-24T07:05:47;20.60;99.90
54124;DHT22;55741;53.252;5.788;2023-06-24T07:08:13;20.70;99.90
54124;DHT22;55741;53.252;5.788;2023-06-24T07:10:39;20.70;99.90
54124;DHT22;55741;53.252;5.788;2023-06-24T07:13:04;20.70;99.90
54124;DHT22;55741;53.252;5.788;2023-06-24T07:15:30;20.80;99.90
54124;DHT22;55741;53.252;5.788;2023-06-24T07:17:56;20.80;99.90
54124;DHT22;55741;53.252;5.788;2023-06-24T07:20:24;20.90;99.90
54124;DHT22;55741;53.252;5.788;2023-06-24T07:22:50;20.90;99.90
54124;DHT22;55741;53.252;5.788;2023-06-24T07:25:15;21.00;99.90
54124;DHT22;55741;53.252;5.788;2023-06-24T07:27:41;21.00;99.90
54124;DHT22;55741;53.252;5.788;2023-06-24T07:30:07;21.10;99.90
54124;DHT22;55741;53.252;5.788;2023-06-24T07:32:34;21.10;99.90
54124;DHT22;55741;53.252;5.788;2023-06-24T07:35:00;21.20;99.90
54124;DHT22;55741;53.252;5.788;2023-06-24T07:37:25;21.30;99.90
54124;DHT22;55741;53.252;5.788;2023-06-24T07:39:51;21.30;99.90
54124;DHT22;55741;53.252;5.788;2023-06-24T07:42:17;21.40;99.90
54124;DHT22;55741;53.252;5.788;2023-06-24T07:44:48;21.50;99.90
54124;DHT22;55741;53.252;5.788;2023-06-24T07:47:16;21.50;99.90
54124;DHT22;55741;53.252;5.788;2023-06-24T07:49:41;21.60;99.90
54124;DHT22;55741;53.252;5.788;2023-06-24T07:52:09;21.60;99.90
54124;DHT22;55741;53.252;5.788;2023-06-24T07:54:34;21.70;99.90
54124;DHT22;55741;53.252;5.788;2023-06-24T07:57:01;21.80;99.90
54124;DHT22;55741;53.252;5.788;2023-06-24T07:59:27;21.90;99.90
54124;DHT22;55741;53.252;5.788;2023-06-24T08:01:53;22.10;99.90
54124;DHT22;55741;53.252;5.788;2023-06-24T08:04:19;22.20;99.90
54124;DHT22;55741;53.252;5.788;2023-06-24T08:06:45;22.30;99.90
54124;DHT22;55741;53.252;5.788;2023-06-24T08:09:11;22.30;99.90
54124;DHT22;55741;53.252;5.788;2023-06-24T08:11:36;22.40;99.90
54124;DHT22;55741;53.252;5.788;2023-06-24T08:14:02;22.50;99.90
54124;DHT22;55741;53.252;5.788;2023-06-24T08:16:29;22.70;99.90
54124;DHT22;55741;53.252;5.788;2023-06-24T08:18:55;22.70;99.90
54124;DHT22;55741;53.252;5.788;2023-06-24T08:21:21;22.80;99.90
54124;DHT22;55741;53.252;5.788;2023-06-24T08:23:47;22.90;99.90
54124;DHT22;55741;53.252;5.788;2023-06-24T08:26:15;23.00;99.90
54124;DHT22;55741;53.252;5.788;2023-06-24T08:28:41;23.10;99.90
54124;DHT22;55741;53.252;5.788;2023-06-24T08:31:07;23.20;99.90
54124;DHT22;55741;53.252;5.788;2023-06-24T08:33:33;23.30;99.90
54124;DHT22;55741;53.252;5.788;2023-06-24T08:35:59;23.50;99.90
54124;DHT22;55741;53.252;5.788;2023-06-24T08:38:25;23.60;99.90
54124;DHT22;55741;53.252;5.788;2023-06-24T08:40:52;23.70;99.90
54124;DHT22;55741;53.252;5.788;2023-06-24T08:43:18;23.70;99.90
54124;DHT22;55741;53.252;5.788;2023-06-24T08:45:43;23.80;99.90
54124;DHT22;55741;53.252;5.788;2023-06-24T08:48:11;23.90;99.90
54124;DHT22;55741;53.252;5.788;2023-06-24T08:50:44;24.00;99.90
54124;DHT22;55741;53.252;5.788;2023-06-24T08:53:14;24.10;99.90
54124;DHT22;55741;53.252;5.788;2023-06-24T08:55:43;24.30;99.90
54124;DHT22;55741;53.252;5.788;2023-06-24T08:58:09;24.50;99.90
54124;DHT22;55741;53.252;5.788;2023-06-24T09:00:35;24.70;99.90
54124;DHT22;55741;53.252;5.788;2023-06-24T09:03:02;24.90;99.90
54124;DHT22;55741;53.252;5.788;2023-06-24T09:05:28;25.10;99.90
54124;DHT22;55741;53.252;5.788;2023-06-24T09:07:53;25.10;99.90
54124;DHT22;55741;53.252;5.788;2023-06-24T09:10:33;25.20;99.90
54124;DHT22;55741;53.252;5.788;2023-06-24T09:13:03;25.40;99.90
54124;DHT22;55741;53.252;5.788;2023-06-24T09:15:33;25.50;99.90
54124;DHT22;55741;53.252;5.788;2023-06-24T09:17:59;25.60;99.90
54124;DHT22;55741;53.252;5.788;2023-06-24T09:20:27;25.80;99.90
54124;DHT22;55741;53.252;5.788;2023-06-24T09:23:01;25.80;99.90
54124;DHT22;55741;53.252;5.788;2023-06-24T09:25:28;25.90;99.90
54124;DHT22;55741;53.252;5.788;2023-06-24T09:27:54;26.00;99.90
54124;DHT22;55741;53.252;5.788;2023-06-24T09:30:24;26.20;99.90
54124;DHT22;55741;53.252;5.788;2023-06-24T09:32:51;26.30;99.90
54124;DHT22;55741;53.252;5.788;2023-06-24T09:35:22;26.40;99.90
54124;DHT22;55741;53.252;5.788;2023-06-24T09:37:52;26.50;99.90
54124;DHT22;55741;53.252;5.788;2023-06-24T09:40:19;26.60;99.90
54124;DHT22;55741;53.252;5.788;2023-06-24T09:42:52;26.60;99.90
54124;DHT22;55741;53.252;5.788;2023-06-24T09:45:28;26.70;99.90
54124;DHT22;55741;53.252;5.788;2023-06-24T09:47:55;26.90;99.90
54124;DHT22;55741;53.252;5.788;2023-06-24T09:50:21;27.00;99.90
54124;DHT22;55741;53.252;5.788;2023-06-24T09:52:49;27.10;99.90
54124;DHT22;55741;53.252;5.788;2023-06-24T09:55:18;27.20;99.60
54124;DHT22;55741;53.252;5.788;2023-06-24T09:57:51;27.10;99.70
54124;DHT22;55741;53.252;5.788;2023-06-24T10:00:19;27.00;99.90
54124;DHT22;55741;53.252;5.788;2023-06-24T10:02:45;27.00;99.90
54124;DHT22;55741;53.252;5.788;2023-06-24T10:05:13;27.00;99.90
54124;DHT22;55741;53.252;5.788;2023-06-24T10:07:40;27.20;99.90
54124;DHT22;55741;53.252;5.788;2023-06-24T10:10:06;27.40;99.90
54124;DHT22;55741;53.252;5.788;2023-06-24T10:12:37;27.50;99.90
54124;DHT22;55741;53.252;5.788;2023-06-24T10:15:05;27.60;99.90
54124;DHT22;55741;53.252;5.788;2023-06-24T10:17:30;27.70;99.90
54124;DHT22;55741;53.252;5.788;2023-06-24T10:19:56;27.80;99.90
54124;DHT22;55741;53.252;5.788;2023-06-24T10:22:23;27.90;99.90
54124;DHT22;55741;53.252;5.788;2023-06-24T10:24:54;28.00;99.90
54124;DHT22;55741;53.252;5.788;2023-06-24T10:27:23;28.10;99.70
54124;DHT22;55741;53.252;5.788;2023-06-24T10:29:53;28.00;99.30
54124;DHT22;55741;53.252;5.788;2023-06-24T10:32:22;27.90;99.10
54124;DHT22;55741;53.252;5.788;2023-06-24T10:34:56;27.80;99.10
54124;DHT22;55741;53.252;5.788;2023-06-24T10:37:32;27.90;99.70
54124;DHT22;55741;53.252;5.788;2023-06-24T10:40:02;27.90;99.40
54124;DHT22;55741;53.252;5.788;2023-06-24T10:50:08;28.00;98.10
54124;DHT22;55741;53.252;5.788;2023-06-24T10:52:40;28.00;98.30
54124;DHT22;55741;53.252;5.788;2023-06-24T10:55:06;28.10;98.80
54124;DHT22;55741;53.252;5.788;2023-06-24T10:57:37;28.30;98.80
54124;DHT22;55741;53.252;5.788;2023-06-24T11:00:03;28.50;98.40
54124;DHT22;55741;53.252;5.788;2023-06-24T11:02:29;28.60;98.50
54124;DHT22;55741;53.252;5.788;2023-06-24T11:04:57;28.60;98.00
54124;DHT22;55741;53.252;5.788;2023-06-24T11:07:42;28.60;97.90
54124;DHT22;55741;53.252;5.788;2023-06-24T11:10:10;28.50;98.10
54124;DHT22;55741;53.252;5.788;2023-06-24T11:12:37;28.50;98.30
54124;DHT22;55741;53.252;5.788;2023-06-24T11:15:05;28.50;97.90
54124;DHT22;55741;53.252;5.788;2023-06-24T11:17:33;28.60;97.80
54124;DHT22;55741;53.252;5.788;2023-06-24T11:19:59;28.50;97.30
54124;DHT22;55741;53.252;5.788;2023-06-24T11:22:26;28.60;97.10
54124;DHT22;55741;53.252;5.788;2023-06-24T11:24:53;28.60;96.70
54124;DHT22;55741;53.252;5.788;2023-06-24T11:27:30;28.60;97.40
54124;DHT22;55741;53.252;5.788;2023-06-24T11:30:00;28.70;97.90
54124;DHT22;55741;53.252;5.788;2023-06-24T11:32:40;28.70;97.60
54124;DHT22;55741;53.252;5.788;2023-06-24T11:35:09;28.80;97.50
54124;DHT22;55741;53.252;5.788;2023-06-24T11:37:35;28.90;97.80
54124;DHT22;55741;53.252;5.788;2023-06-24T11:42:32;29.00;96.70
54124;DHT22;55741;53.252;5.788;2023-06-24T11:45:05;29.00;96.20
54124;DHT22;55741;53.252;5.788;2023-06-24T11:47:32;28.80;95.60
54124;DHT22;55741;53.252;5.788;2023-06-24T11:49:59;28.80;96.10
54124;DHT22;55741;53.252;5.788;2023-06-24T11:52:41;28.90;95.80
54124;DHT22;55741;53.252;5.788;2023-06-24T11:55:19;28.90;95.80
54124;DHT22;55741;53.252;5.788;2023-06-24T11:58:01;29.00;95.50
54124;DHT22;55741;53.252;5.788;2023-06-24T12:00:34;29.00;95.50
54124;DHT22;55741;53.252;5.788;2023-06-24T12:03:02;29.10;96.10
54124;DHT22;55741;53.252;5.788;2023-06-24T12:05:32;29.20;96.50
54124;DHT22;55741;53.252;5.788;2023-06-24T12:08:00;29.30;95.70
54124;DHT22;55741;53.252;5.788;2023-06-24T12:10:26;29.30;95.50
54124;DHT22;55741;53.252;5.788;2023-06-24T12:12:52;29.30;95.50
54124;DHT22;55741;53.252;5.788;2023-06-24T12:15:19;29.20;95.30
54124;DHT22;55741;53.252;5.788;2023-06-24T12:17:45;29.20;95.60
54124;DHT22;55741;53.252;5.788;2023-06-24T12:20:11;29.20;96.10
54124;DHT22;55741;53.252;5.788;2023-06-24T12:22:39;29.30;96.10
54124;DHT22;55741;53.252;5.788;2023-06-24T12:25:05;29.30;95.90
54124;DHT22;55741;53.252;5.788;2023-06-24T12:27:31;29.20;95.80
54124;DHT22;55741;53.252;5.788;2023-06-24T12:29:57;29.10;96.20
54124;DHT22;55741;53.252;5.788;2023-06-24T12:32:23;29.20;96.50
54124;DHT22;55741;53.252;5.788;2023-06-24T12:34:48;29.30;95.80
54124;DHT22;55741;53.252;5.788;2023-06-24T12:37:14;29.30;95.70
54124;DHT22;55741;53.252;5.788;2023-06-24T12:39:40;29.40;95.70
54124;DHT22;55741;53.252;5.788;2023-06-24T12:42:06;29.40;95.10
54124;DHT22;55741;53.252;5.788;2023-06-24T12:44:32;29.50;95.10
54124;DHT22;55741;53.252;5.788;2023-06-24T12:46:58;29.40;95.20
54124;DHT22;55741;53.252;5.788;2023-06-24T12:49:23;29.40;95.30
54124;DHT22;55741;53.252;5.788;2023-06-24T12:51:49;29.40;95.30
54124;DHT22;55741;53.252;5.788;2023-06-24T12:54:15;29.40;95.30
54124;DHT22;55741;53.252;5.788;2023-06-24T12:56:42;29.30;95.10
54124;DHT22;55741;53.252;5.788;2023-06-24T12:59:10;29.30;95.50
54124;DHT22;55741;53.252;5.788;2023-06-24T13:01:35;29.30;95.70
54124;DHT22;55741;53.252;5.788;2023-06-24T13:04:01;29.40;95.40
54124;DHT22;55741;53.252;5.788;2023-06-24T13:06:27;29.40;95.80
54124;DHT22;55741;53.252;5.788;2023-06-24T13:08:53;29.60;95.90
54124;DHT22;55741;53.252;5.788;2023-06-24T13:11:19;29.70;96.10
54124;DHT22;55741;53.252;5.788;2023-06-24T13:13:45;29.80;95.80
54124;DHT22;55741;53.252;5.788;2023-06-24T13:16:11;29.80;95.50
54124;DHT22;55741;53.252;5.788;2023-06-24T13:18:37;29.80;95.60
54124;DHT22;55741;53.252;5.788;2023-06-24T13:21:02;29.80;95.70
54124;DHT22;55741;53.252;5.788;2023-06-24T13:23:29;29.90;95.30
54124;DHT22;55741;53.252;5.788;2023-06-24T13:25:54;30.00;95.30
54124;DHT22;55741;53.252;5.788;2023-06-24T13:28:20;30.10;95.40
54124;DHT22;55741;53.252;5.788;2023-06-24T13:30:46;30.20;95.40
54124;DHT22;55741;53.252;5.788;2023-06-24T13:33:12;30.20;94.60
54124;DHT22;55741;53.252;5.788;2023-06-24T13:35:38;30.30;94.30
54124;DHT22;55741;53.252;5.788;2023-06-24T13:38:03;30.30;94.00
54124;DHT22;55741;53.252;5.788;2023-06-24T13:40:29;30.20;93.40
54124;DHT22;55741;53.252;5.788;2023-06-24T13:42:56;30.20;93.20
54124;DHT22;55741;53.252;5.788;2023-06-24T13:45:22;30.10;93.10
54124;DHT22;55741;53.252;5.788;2023-06-24T13:47:48;30.10;93.50
54124;DHT22;55741;53.252;5.788;2023-06-24T13:50:14;30.10;93.20
54124;DHT22;55741;53.252;5.788;2023-06-24T13:52:40;30.00;92.80
54124;DHT22;55741;53.252;5.788;2023-06-24T13:55:06;30.00;92.90
54124;DHT22;55741;53.252;5.788;2023-06-24T13:57:32;29.80;93.00
54124;DHT22;55741;53.252;5.788;2023-06-24T13:59:59;29.70;93.00
54124;DHT22;55741;53.252;5.788;2023-06-24T14:02:26;29.80;93.30
54124;DHT22;55741;53.252;5.788;2023-06-24T14:04:52;29.80;93.20
54124;DHT22;55741;53.252;5.788;2023-06-24T14:07:18;29.80;93.50
54124;DHT22;55741;53.252;5.788;2023-06-24T14:09:44;29.80;93.30
54124;DHT22;55741;53.252;5.788;2023-06-24T14:12:10;29.90;93.50
54124;DHT22;55741;53.252;5.788;2023-06-24T14:14:36;29.90;93.50
54124;DHT22;55741;53.252;5.788;2023-06-24T14:17:03;29.90;93.80
54124;DHT22;55741;53.252;5.788;2023-06-24T14:19:29;29.80;94.00
54124;DHT22;55741;53.252;5.788;2023-06-24T14:21:55;29.90;94.20
54124;DHT22;55741;53.252;5.788;2023-06-24T14:24:21;30.00;93.90
54124;DHT22;55741;53.252;5.788;2023-06-24T14:26:47;30.00;93.60
54124;DHT22;55741;53.252;5.788;2023-06-24T14:29:15;30.00;93.30
54124;DHT22;55741;53.252;5.788;2023-06-24T14:31:41;30.00;93.60
54124;DHT22;55741;53.252;5.788;2023-06-24T14:34:07;30.00;93.50
54124;DHT22;55741;53.252;5.788;2023-06-24T14:36:33;29.90;93.40
54124;DHT22;55741;53.252;5.788;2023-06-24T14:38:59;30.00;93.30
54124;DHT22;55741;53.252;5.788;2023-06-24T14:41:25;29.90;93.20
54124;DHT22;55741;53.252;5.788;2023-06-24T14:43:51;29.80;93.30
54124;DHT22;55741;53.252;5.788;2023-06-24T14:46:17;29.80;93.40
54124;DHT22;55741;53.252;5.788;2023-06-24T14:48:43;29.80;93.50
54124;DHT22;55741;53.252;5.788;2023-06-24T14:51:09;29.80;93.40
54124;DHT22;55741;53.252;5.788;2023-06-24T14:53:34;29.80;93.70
54124;DHT22;55741;53.252;5.788;2023-06-24T14:56:00;29.70;93.10
54124;DHT22;55741;53.252;5.788;2023-06-24T14:58:26;29.70;93.40
54124;DHT22;55741;53.252;5.788;2023-06-24T15:00:54;29.70;93.30
54124;DHT22;55741;53.252;5.788;2023-06-24T15:03:19;29.60;93.30
54124;DHT22;55741;53.252;5.788;2023-06-24T15:05:46;29.60;93.40
54124;DHT22;55741;53.252;5.788;2023-06-24T15:08:12;29.50;93.20
54124;DHT22;55741;53.252;5.788;2023-06-24T15:10:38;29.50;93.30
54124;DHT22;55741;53.252;5.788;2023-06-24T15:13:03;29.40;93.50
54124;DHT22;55741;53.252;5.788;2023-06-24T15:15:31;29.30;93.30
54124;DHT22;55741;53.252;5.788;2023-06-24T15:17:57;29.20;93.20
54124;DHT22;55741;53.252;5.788;2023-06-24T15:20:23;29.20;93.60
54124;DHT22;55741;53.252;5.788;2023-06-24T15:22:49;29.30;93.50
54124;DHT22;55741;53.252;5.788;2023-06-24T15:25:15;29.40;93.60
54124;DHT22;55741;53.252;5.788;2023-06-24T15:27:40;29.40;93.60
54124;DHT22;55741;53.252;5.788;2023-06-24T15:30:07;29.50;93.60
54124;DHT22;55741;53.252;5.788;2023-06-24T15:32:32;29.60;93.50
54124;DHT22;55741;53.252;5.788;2023-06-24T15:35:02;29.60;93.20
54124;DHT22;55741;53.252;5.788;2023-06-24T15:37:27;29.50;93.00
54124;DHT22;55741;53.252;5.788;2023-06-24T15:39:54;29.40;93.00
54124;DHT22;55741;53.252;5.788;2023-06-24T15:42:20;29.30;92.90
54124;DHT22;55741;53.252;5.788;2023-06-24T15:44:46;29.20;93.00
54124;DHT22;55741;53.252;5.788;2023-06-24T15:47:12;29.30;93.50
54124;DHT22;55741;53.252;5.788;2023-06-24T15:49:38;29.20;93.40
54124;DHT22;55741;53.252;5.788;2023-06-24T15:52:04;29.20;93.40